Terminal Aerodrome Forecast
Issued by NWS

Home | Current Version | Previous Version | Text Only | Print | Product List | Glossary On
Versions: 1 2 3 4 5 6 7 8 9 10 11 12 13 14 15
083
FTUS46 KMTR 241505 AAA
TAFSTS
TAF AMD
KSTS 241505Z 2415/2512 15014G22KT 4SM RA BR OVC012
     FM242000 16007G15KT P6SM -RA SCT015 BKN040 OVC050
     FM250000 21006KT P6SM VCSH FEW030 SCT070 BKN150
     FM250400 00000KT P6SM FEW020
     FM250800 00000KT P6SM SKC=

USA.gov is the U.S. government's official web portal to all federal, state and local government web resources and services.